PWSweather.com
Personal Weather Stations
Station Observations
KMICHEBO10
Cordwood Point, Lake Huron, Cheboygan, MI 49721

Cordwood Point, Lake HuronCheboygan, MI 49721

Lat: 45.663372, Lon: -84.3327789

Elevation: 584

Station Type: Davis Vantage Pro2 Wireless

http://www.lakehuronweather.org

High Low Average
Temperature 40.3°F4.6°C 32.5°F0.3°C 35.9°F2.2°C
Dew Point 33.9°F1.1°C 29.5°F-1.4°C 31.4°F-0.3°C
Winds 5.8 mph 9.3 kmh Calm Calm 1.0 mph WSW1.6 kmh WSW
Wind Gusts 16.1 mph25.9 kmh -- 3.0 mph4.8 kmh
Humidity 92% 74% 84%
Pressure 29.96 in1014.6 mb 29.44 in997.0 mb -
Precipitation 0.01 in0.3 mm - -
Hour Temp Dew Point Humidity Winds Wind Gusts Pressure Precip Precip Rate Daily Precip Total
12:00 AM 36.4°F2.4°C 29.2°F-1.6°C 75% 2.3 mph S3.7 kmh S 4.6 mph7.4 kmh 29.43 in996.6 mb - 0.00 in0.0 mm 0.03 in0.8 mm
12:10 AM 36.5°F2.5°C 29.3°F-1.5°C 75% 4.6 mph WSW7.4 kmh WSW 6.9 mph11.1 kmh 29.44 in997.0 mb - 0.00 in0.0 mm 0.03 in0.8 mm
12:20 AM 36.8°F2.7°C 29.6°F-1.3°C 75% 3.5 mph SSW5.6 kmh SSW 5.8 mph9.3 kmh 29.44 in997.0 mb - 0.00 in0.0 mm 0.03 in0.8 mm
12:30 AM 37.1°F2.8°C 29.9°F-1.2°C 75% 5.8 mph SW9.3 kmh SW 11.5 mph18.5 kmh 29.43 in996.6 mb - 0.00 in0.0 mm 0.03 in0.8 mm
12:40 AM 37.4°F3.0°C 30.2°F-1.0°C 75% 5.8 mph SW9.3 kmh SW 9.2 mph14.8 kmh 29.44 in997.0 mb - 0.00 in0.0 mm 0.03 in0.8 mm
12:50 AM 38.2°F3.4°C 30.9°F-0.6°C 75% 2.3 mph S3.7 kmh S 6.9 mph11.1 kmh 29.44 in997.0 mb - 0.00 in0.0 mm 0.03 in0.8 mm
01:00 AM 38.5°F3.6°C 30.9°F-0.6°C 74% 5.8 mph WSW9.3 kmh WSW 11.5 mph18.5 kmh 29.44 in997.0 mb - 0.00 in0.0 mm 0.00 in0.0 mm
01:10 AM 38.8°F3.8°C 31.2°F-0.4°C 74% 4.6 mph SW7.4 kmh SW 11.5 mph18.5 kmh 29.44 in997.0 mb - 0.00 in0.0 mm 0.00 in0.0 mm
01:20 AM 38.8°F3.8°C 31.2°F-0.4°C 74% 3.5 mph WSW5.6 kmh WSW 6.9 mph11.1 kmh 29.44 in997.0 mb - 0.00 in0.0 mm 0.00 in0.0 mm
01:30 AM 38.4°F3.6°C 31.5°F-0.3°C 76% 4.6 mph WSW7.4 kmh WSW 16.1 mph25.9 kmh 29.44 in997.0 mb - 0.00 in0.0 mm 0.00 in0.0 mm
01:40 AM 38.6°F3.7°C 31.4°F-0.3°C 75% 3.5 mph WSW5.6 kmh WSW 12.7 mph20.4 kmh 29.45 in997.3 mb - 0.00 in0.0 mm 0.00 in0.0 mm
01:50 AM 38.7°F3.7°C 31.8°F-0.1°C 76% 5.8 mph SW9.3 kmh SW 11.5 mph18.5 kmh 29.45 in997.3 mb - 0.00 in0.0 mm 0.00 in0.0 mm
02:00 AM 38.7°F3.7°C 31.8°F-0.1°C 76% 4.6 mph SW7.4 kmh SW 8.1 mph13.0 kmh 29.46 in997.6 mb - 0.00 in0.0 mm 0.00 in0.0 mm
02:10 AM 38.7°F3.7°C 31.8°F-0.1°C 76% 4.6 mph SW7.4 kmh SW 11.5 mph18.5 kmh 29.46 in997.6 mb - 0.00 in0.0 mm 0.00 in0.0 mm
02:20 AM 38.6°F3.7°C 32.0°F0.0°C 77% 5.8 mph SW9.3 kmh SW 11.5 mph18.5 kmh 29.48 in998.3 mb - 0.00 in0.0 mm 0.00 in0.0 mm
02:30 AM 38.7°F3.7°C 32.1°F0.1°C 77% 3.5 mph SW5.6 kmh SW 9.2 mph14.8 kmh 29.49 in998.6 mb - 0.00 in0.0 mm 0.00 in0.0 mm
02:40 AM 38.8°F3.8°C 31.9°F-0.1°C 76% 5.8 mph WSW9.3 kmh WSW 8.1 mph13.0 kmh 29.50 in999.0 mb - 0.00 in0.0 mm 0.00 in0.0 mm
02:50 AM 38.8°F3.8°C 31.9°F-0.1°C 76% 4.6 mph WSW7.4 kmh WSW 5.8 mph9.3 kmh 29.50 in999.0 mb - 0.00 in0.0 mm 0.00 in0.0 mm
03:00 AM 38.9°F3.8°C 32.0°F0.0°C 76% 2.3 mph NW3.7 kmh NW 9.2 mph14.8 kmh 29.50 in999.0 mb - 0.00 in0.0 mm 0.00 in0.0 mm
03:10 AM 38.8°F3.8°C 31.9°F-0.1°C 76% 3.5 mph SW5.6 kmh SW 4.6 mph7.4 kmh 29.50 in999.0 mb - 0.00 in0.0 mm 0.00 in0.0 mm
03:20 AM 38.6°F3.7°C 32.0°F0.0°C 77% 3.5 mph SW5.6 kmh SW 3.5 mph5.6 kmh 29.51 in999.3 mb - 0.00 in0.0 mm 0.00 in0.0 mm
03:30 AM 38.6°F3.7°C 32.0°F0.0°C 77% 2.3 mph SW3.7 kmh SW 5.8 mph9.3 kmh 29.52 in999.7 mb - 0.00 in0.0 mm 0.00 in0.0 mm
03:40 AM 38.4°F3.6°C 31.8°F-0.1°C 77% 3.5 mph WSW5.6 kmh WSW 9.2 mph14.8 kmh 29.53 in1000.0 mb - 0.00 in0.0 mm 0.00 in0.0 mm
03:50 AM 38.2°F3.4°C 31.9°F-0.1°C 78% 3.5 mph SW5.6 kmh SW 6.9 mph11.1 kmh 29.54 in1000.3 mb - 0.00 in0.0 mm 0.00 in0.0 mm
04:00 AM 38.0°F3.3°C 31.7°F-0.2°C 78% 2.3 mph SW3.7 kmh SW 6.9 mph11.1 kmh 29.55 in1000.7 mb - 0.00 in0.0 mm 0.00 in0.0 mm
04:10 AM 37.7°F3.2°C 31.8°F-0.1°C 79% 2.3 mph SW3.7 kmh SW 5.8 mph9.3 kmh 29.55 in1000.7 mb - 0.00 in0.0 mm 0.00 in0.0 mm
04:20 AM 37.6°F3.1°C 31.7°F-0.2°C 79% 2.3 mph SW3.7 kmh SW 4.6 mph7.4 kmh 29.56 in1001.0 mb - 0.00 in0.0 mm 0.00 in0.0 mm
04:30 AM 37.3°F2.9°C 31.7°F-0.2°C 80% 2.3 mph SW3.7 kmh SW 3.5 mph5.6 kmh 29.57 in1001.4 mb - 0.00 in0.0 mm 0.00 in0.0 mm
04:40 AM 37.1°F2.8°C 31.5°F-0.3°C 80% 2.3 mph WSW3.7 kmh WSW 3.5 mph5.6 kmh 29.57 in1001.4 mb - 0.00 in0.0 mm 0.00 in0.0 mm
04:50 AM 36.8°F2.7°C 31.2°F-0.4°C 80% 3.5 mph SSW5.6 kmh SSW 3.5 mph5.6 kmh 29.58 in1001.7 mb - 0.00 in0.0 mm 0.00 in0.0 mm
05:00 AM 36.9°F2.7°C 31.3°F-0.4°C 80% 3.5 mph SW5.6 kmh SW 5.8 mph9.3 kmh 29.58 in1001.7 mb - 0.00 in0.0 mm 0.00 in0.0 mm
05:10 AM 36.8°F2.7°C 31.2°F-0.4°C 80% 3.5 mph SW5.6 kmh SW 4.6 mph7.4 kmh 29.58 in1001.7 mb - 0.00 in0.0 mm 0.00 in0.0 mm
05:20 AM 36.7°F2.6°C 31.1°F-0.5°C 80% 3.5 mph WSW5.6 kmh WSW 5.8 mph9.3 kmh 29.59 in1002.0 mb - 0.00 in0.0 mm 0.00 in0.0 mm
05:30 AM 36.7°F2.6°C 31.1°F-0.5°C 80% 5.8 mph SW9.3 kmh SW 9.2 mph14.8 kmh 29.59 in1002.0 mb - 0.00 in0.0 mm 0.00 in0.0 mm
05:40 AM 36.7°F2.6°C 31.4°F-0.3°C 81% 2.3 mph WSW3.7 kmh WSW 3.5 mph5.6 kmh 29.59 in1002.0 mb - 0.00 in0.0 mm 0.00 in0.0 mm
05:50 AM 36.6°F2.6°C 31.3°F-0.4°C 81% 2.3 mph SW3.7 kmh SW 2.3 mph3.7 kmh 29.60 in1002.4 mb - 0.00 in0.0 mm 0.00 in0.0 mm
06:00 AM 36.5°F2.5°C 31.2°F-0.4°C 81% 3.5 mph SW5.6 kmh SW 5.8 mph9.3 kmh 29.60 in1002.4 mb - 0.00 in0.0 mm 0.00 in0.0 mm
06:10 AM 36.3°F2.4°C 31.0°F-0.6°C 81% 3.5 mph WSW5.6 kmh WSW 6.9 mph11.1 kmh 29.61 in1002.7 mb - 0.00 in0.0 mm 0.00 in0.0 mm
06:20 AM 36.0°F2.2°C 31.1°F-0.5°C 82% 1.2 mph SW1.9 kmh SW 3.5 mph5.6 kmh 29.61 in1002.7 mb - 0.00 in0.0 mm 0.00 in0.0 mm
06:30 AM 35.6°F2.0°C 30.7°F-0.7°C 82% 1.2 mph SSW1.9 kmh SSW 2.3 mph3.7 kmh 29.62 in1003.0 mb - 0.00 in0.0 mm 0.00 in0.0 mm
06:40 AM 35.5°F1.9°C 30.8°F-0.7°C 83% 2.3 mph SSW3.7 kmh SSW 3.5 mph5.6 kmh 29.63 in1003.4 mb - 0.00 in0.0 mm 0.00 in0.0 mm
06:50 AM 35.3°F1.8°C 30.7°F-0.7°C 83% 2.3 mph SW3.7 kmh SW 3.5 mph5.6 kmh 29.64 in1003.7 mb - 0.00 in0.0 mm 0.00 in0.0 mm
07:00 AM 35.3°F1.8°C 30.7°F-0.7°C 83% 3.5 mph SSW5.6 kmh SSW 3.5 mph5.6 kmh 29.64 in1003.7 mb - 0.00 in0.0 mm 0.00 in0.0 mm
07:10 AM 35.3°F1.8°C 30.7°F-0.7°C 83% 2.3 mph SW3.7 kmh SW 8.1 mph13.0 kmh 29.64 in1003.7 mb - 0.00 in0.0 mm 0.00 in0.0 mm
07:20 AM 35.3°F1.8°C 30.7°F-0.7°C 83% 2.3 mph SW3.7 kmh SW 4.6 mph7.4 kmh 29.64 in1003.7 mb - 0.00 in0.0 mm 0.00 in0.0 mm
07:30 AM 35.1°F1.7°C 30.5°F-0.8°C 83% 3.5 mph SW5.6 kmh SW 8.1 mph13.0 kmh 29.65 in1004.1 mb - 0.00 in0.0 mm 0.00 in0.0 mm
07:40 AM 34.8°F1.6°C 30.5°F-0.8°C 84% 3.5 mph WSW5.6 kmh WSW 9.2 mph14.8 kmh 29.66 in1004.4 mb - 0.00 in0.0 mm 0.00 in0.0 mm
07:50 AM 34.7°F1.5°C 30.1°F-1.1°C 83% 1.2 mph SW1.9 kmh SW 2.3 mph3.7 kmh 29.66 in1004.4 mb - 0.00 in0.0 mm 0.00 in0.0 mm
08:00 AM 34.4°F1.3°C 30.1°F-1.1°C 84% 2.3 mph SW3.7 kmh SW 4.6 mph7.4 kmh 29.67 in1004.7 mb - 0.00 in0.0 mm 0.00 in0.0 mm
08:10 AM 34.1°F1.2°C 29.7°F-1.3°C 84% 1.2 mph SW1.9 kmh SW 3.5 mph5.6 kmh 29.68 in1005.1 mb - 0.00 in0.0 mm 0.00 in0.0 mm
08:20 AM 33.5°F0.8°C 29.5°F-1.4°C 85% 1.2 mph SW1.9 kmh SW 2.3 mph3.7 kmh 29.68 in1005.1 mb - 0.00 in0.0 mm 0.00 in0.0 mm
08:30 AM 33.3°F0.7°C 29.5°F-1.4°C 86% 1.2 mph WSW1.9 kmh WSW 3.5 mph5.6 kmh 29.69 in1005.4 mb - 0.00 in0.0 mm 0.00 in0.0 mm
08:40 AM 33.2°F0.7°C 29.8°F-1.2°C 87% 1.2 mph SW1.9 kmh SW 3.5 mph5.6 kmh 29.69 in1005.4 mb - 0.00 in0.0 mm 0.00 in0.0 mm
08:50 AM 33.1°F0.6°C 29.6°F-1.3°C 87% 1.2 mph SW1.9 kmh SW 2.3 mph3.7 kmh 29.69 in1005.4 mb - 0.00 in0.0 mm 0.00 in0.0 mm
09:00 AM 32.9°F0.5°C 29.7°F-1.3°C 88% 1.2 mph WSW1.9 kmh WSW 3.5 mph5.6 kmh 29.70 in1005.8 mb - 0.00 in0.0 mm 0.00 in0.0 mm
09:10 AM 32.8°F0.4°C 29.6°F-1.3°C 88% 1.2 mph SW1.9 kmh SW 2.3 mph3.7 kmh 29.71 in1006.1 mb - 0.00 in0.0 mm 0.00 in0.0 mm
09:20 AM 32.8°F0.4°C 29.6°F-1.3°C 88% 1.2 mph SW1.9 kmh SW 2.3 mph3.7 kmh 29.71 in1006.1 mb - 0.00 in0.0 mm 0.00 in0.0 mm
09:30 AM 32.8°F0.4°C 29.6°F-1.3°C 88% 1.2 mph SSW1.9 kmh SSW 3.5 mph5.6 kmh 29.72 in1006.4 mb - 0.00 in0.0 mm 0.00 in0.0 mm
09:40 AM 33.0°F0.6°C 29.8°F-1.2°C 88% 1.2 mph SW1.9 kmh SW 6.9 mph11.1 kmh 29.72 in1006.4 mb - 0.00 in0.0 mm 0.00 in0.0 mm
09:50 AM 33.0°F0.6°C 29.8°F-1.2°C 88% 1.2 mph SW1.9 kmh SW 3.5 mph5.6 kmh 29.72 in1006.4 mb - 0.00 in0.0 mm 0.00 in0.0 mm
10:00 AM 33.0°F0.6°C 29.8°F-1.2°C 88% 2.3 mph SW3.7 kmh SW 3.5 mph5.6 kmh 29.73 in1006.8 mb - 0.00 in0.0 mm 0.00 in0.0 mm
10:10 AM 33.2°F0.7°C 29.8°F-1.2°C 87% Calm Calm 1.2 mph1.9 kmh 29.74 in1007.1 mb - 0.00 in0.0 mm 0.00 in0.0 mm
10:20 AM 33.4°F0.8°C 30.2°F-1.0°C 88% 2.3 mph SW3.7 kmh SW 3.5 mph5.6 kmh 29.74 in1007.1 mb - 0.00 in0.0 mm 0.00 in0.0 mm
10:30 AM 33.7°F0.9°C 30.2°F-1.0°C 87% 1.2 mph SW1.9 kmh SW 1.2 mph1.9 kmh 29.74 in1007.1 mb - 0.00 in0.0 mm 0.00 in0.0 mm
10:40 AM 33.8°F1.0°C 30.4°F-0.9°C 87% 1.2 mph WSW1.9 kmh WSW 1.2 mph1.9 kmh 29.75 in1007.5 mb - 0.00 in0.0 mm 0.00 in0.0 mm
10:50 AM 34.1°F1.2°C 30.6°F-0.8°C 87% 1.2 mph SW1.9 kmh SW 3.5 mph5.6 kmh 29.75 in1007.5 mb - 0.00 in0.0 mm 0.00 in0.0 mm
11:00 AM 34.4°F1.3°C 30.9°F-0.6°C 87% 1.2 mph WNW1.9 kmh WNW 1.2 mph1.9 kmh 29.77 in1008.1 mb - 0.00 in0.0 mm 0.00 in0.0 mm
11:10 AM 34.7°F1.5°C 31.2°F-0.4°C 87% Calm Calm -- 29.77 in1008.1 mb - 0.00 in0.0 mm 0.00 in0.0 mm
11:20 AM 34.9°F1.6°C 31.7°F-0.2°C 88% Calm Calm -- 29.78 in1008.5 mb - 0.00 in0.0 mm 0.00 in0.0 mm
11:30 AM 35.0°F1.7°C 31.8°F-0.1°C 88% Calm Calm 1.2 mph1.9 kmh 29.78 in1008.5 mb - 0.00 in0.0 mm 0.00 in0.0 mm
11:40 AM 34.9°F1.6°C 31.7°F-0.2°C 88% Calm Calm -- 29.78 in1008.5 mb - 0.00 in0.0 mm 0.00 in0.0 mm
11:50 AM 34.8°F1.6°C 31.6°F-0.2°C 88% Calm Calm -- 29.78 in1008.5 mb - 0.00 in0.0 mm 0.00 in0.0 mm
12:00 PM 34.8°F1.6°C 31.9°F-0.1°C 89% Calm Calm -- 29.80 in1009.1 mb - 0.00 in0.0 mm 0.00 in0.0 mm
12:10 PM 35.2°F1.8°C 32.3°F0.2°C 89% Calm Calm 1.2 mph1.9 kmh 29.80 in1009.1 mb - 0.00 in0.0 mm 0.00 in0.0 mm
12:20 PM 36.0°F2.2°C 32.7°F0.4°C 88% Calm Calm -- 29.81 in1009.5 mb - 0.00 in0.0 mm 0.00 in0.0 mm
12:30 PM 36.3°F2.4°C 32.5°F0.3°C 86% Calm Calm -- 29.80 in1009.1 mb - 0.00 in0.0 mm 0.00 in0.0 mm
12:40 PM 36.5°F2.5°C 32.7°F0.4°C 86% Calm Calm -- 29.81 in1009.5 mb - 0.00 in0.0 mm 0.00 in0.0 mm
12:50 PM 36.6°F2.6°C 32.8°F0.4°C 86% Calm Calm -- 29.81 in1009.5 mb - 0.00 in0.0 mm 0.00 in0.0 mm
01:00 PM 37.0°F2.8°C 32.9°F0.5°C 85% Calm Calm -- 29.80 in1009.1 mb - 0.00 in0.0 mm 0.00 in0.0 mm
01:10 PM 37.3°F2.9°C 32.9°F0.5°C 84% Calm Calm -- 29.82 in1009.8 mb - 0.00 in0.0 mm 0.00 in0.0 mm
01:20 PM 37.7°F3.2°C 33.3°F0.7°C 84% Calm Calm -- 29.82 in1009.8 mb - 0.00 in0.0 mm 0.00 in0.0 mm
01:30 PM 38.2°F3.4°C 33.5°F0.8°C 83% Calm Calm 1.2 mph1.9 kmh 29.82 in1009.8 mb - 0.00 in0.0 mm 0.00 in0.0 mm
01:40 PM 38.6°F3.7°C 33.9°F1.1°C 83% Calm Calm -- 29.82 in1009.8 mb - 0.00 in0.0 mm 0.00 in0.0 mm
01:50 PM 38.9°F3.8°C 33.6°F0.9°C 81% Calm Calm 1.2 mph1.9 kmh 29.82 in1009.8 mb - 0.01 in0.3 mm 0.01 in0.3 mm
02:00 PM 39.2°F4.0°C 33.9°F1.1°C 81% Calm Calm -- 29.81 in1009.5 mb - 0.00 in0.0 mm 0.01 in0.3 mm
02:10 PM 39.4°F4.1°C 33.7°F0.9°C 80% Calm Calm -- 29.82 in1009.8 mb - 0.00 in0.0 mm 0.01 in0.3 mm
02:20 PM 39.8°F4.3°C 33.8°F1.0°C 79% Calm Calm -- 29.81 in1009.5 mb - 0.00 in0.0 mm 0.01 in0.3 mm
02:30 PM 40.1°F4.5°C 33.8°F1.0°C 78% Calm Calm -- 29.81 in1009.5 mb - 0.00 in0.0 mm 0.01 in0.3 mm
02:40 PM 40.0°F4.4°C 33.7°F0.9°C 78% 1.2 mph WNW1.9 kmh WNW 1.2 mph1.9 kmh 29.82 in1009.8 mb - 0.00 in0.0 mm 0.01 in0.3 mm
02:50 PM 40.1°F4.5°C 33.5°F0.8°C 77% Calm Calm 2.3 mph3.7 kmh 29.82 in1009.8 mb - 0.00 in0.0 mm 0.01 in0.3 mm
03:00 PM 40.2°F4.6°C 33.6°F0.9°C 77% 1.2 mph WSW1.9 kmh WSW 3.5 mph5.6 kmh 29.82 in1009.8 mb - 0.00 in0.0 mm 0.01 in0.3 mm
03:10 PM 40.3°F4.6°C 33.7°F0.9°C 77% Calm Calm -- 29.83 in1010.2 mb - 0.00 in0.0 mm 0.01 in0.3 mm
03:20 PM 40.2°F4.6°C 33.6°F0.9°C 77% Calm Calm 1.2 mph1.9 kmh 29.83 in1010.2 mb - 0.00 in0.0 mm 0.01 in0.3 mm
03:30 PM 39.8°F4.3°C 33.2°F0.7°C 77% Calm Calm -- 29.84 in1010.5 mb - 0.00 in0.0 mm 0.01 in0.3 mm
03:40 PM 39.0°F3.9°C 33.3°F0.7°C 80% Calm Calm -- 29.84 in1010.5 mb - 0.00 in0.0 mm 0.01 in0.3 mm
03:50 PM 38.6°F3.7°C 33.3°F0.7°C 81% Calm Calm -- 29.84 in1010.5 mb - 0.00 in0.0 mm 0.01 in0.3 mm
04:00 PM 38.3°F3.5°C 33.3°F0.7°C 82% Calm Calm -- 29.84 in1010.5 mb - 0.00 in0.0 mm 0.01 in0.3 mm
04:10 PM 38.1°F3.4°C 33.1°F0.6°C 82% Calm Calm 1.2 mph1.9 kmh 29.85 in1010.8 mb - 0.00 in0.0 mm 0.01 in0.3 mm
04:20 PM 37.9°F3.3°C 32.9°F0.5°C 82% 1.2 mph WSW1.9 kmh WSW 2.3 mph3.7 kmh 29.86 in1011.2 mb - 0.00 in0.0 mm 0.01 in0.3 mm
04:30 PM 37.7°F3.2°C 32.7°F0.4°C 82% Calm Calm 1.2 mph1.9 kmh 29.86 in1011.2 mb - 0.00 in0.0 mm 0.01 in0.3 mm
04:40 PM 37.6°F3.1°C 32.6°F0.3°C 82% Calm Calm 1.2 mph1.9 kmh 29.86 in1011.2 mb - 0.00 in0.0 mm 0.01 in0.3 mm
04:50 PM 37.5°F3.1°C 32.5°F0.3°C 82% Calm Calm 1.2 mph1.9 kmh 29.86 in1011.2 mb - 0.00 in0.0 mm 0.01 in0.3 mm
05:00 PM 37.7°F3.2°C 32.7°F0.4°C 82% Calm Calm -- 29.86 in1011.2 mb - 0.00 in0.0 mm 0.01 in0.3 mm
05:10 PM 37.7°F3.2°C 32.7°F0.4°C 82% Calm Calm -- 29.87 in1011.5 mb - 0.00 in0.0 mm 0.01 in0.3 mm
05:20 PM 37.5°F3.1°C 32.5°F0.3°C 82% Calm Calm -- 29.87 in1011.5 mb - 0.00 in0.0 mm 0.01 in0.3 mm
05:30 PM 37.3°F2.9°C 32.3°F0.2°C 82% Calm Calm -- 29.87 in1011.5 mb - 0.00 in0.0 mm 0.01 in0.3 mm
05:40 PM 37.0°F2.8°C 32.0°F0.0°C 82% Calm Calm -- 29.88 in1011.9 mb - 0.00 in0.0 mm 0.01 in0.3 mm
05:50 PM 36.7°F2.6°C 32.0°F0.0°C 83% Calm Calm -- 29.89 in1012.2 mb - 0.00 in0.0 mm 0.01 in0.3 mm
06:00 PM 36.6°F2.6°C 31.9°F-0.1°C 83% Calm Calm -- 29.87 in1011.5 mb - 0.00 in0.0 mm 0.01 in0.3 mm
06:10 PM 36.4°F2.4°C 31.7°F-0.2°C 83% Calm Calm -- 29.88 in1011.9 mb - 0.00 in0.0 mm 0.01 in0.3 mm
06:20 PM 36.3°F2.4°C 31.3°F-0.4°C 82% Calm Calm -- 29.88 in1011.9 mb - 0.00 in0.0 mm 0.01 in0.3 mm
06:30 PM 36.1°F2.3°C 31.2°F-0.4°C 82% Calm Calm -- 29.89 in1012.2 mb - 0.00 in0.0 mm 0.01 in0.3 mm
06:40 PM 36.0°F2.2°C 31.3°F-0.4°C 83% 1.2 mph SSW1.9 kmh SSW 2.3 mph3.7 kmh 29.89 in1012.2 mb - 0.00 in0.0 mm 0.01 in0.3 mm
06:50 PM 35.9°F2.2°C 31.2°F-0.4°C 83% Calm Calm -- 29.90 in1012.5 mb - 0.00 in0.0 mm 0.01 in0.3 mm
07:00 PM 35.7°F2.1°C 31.0°F-0.6°C 83% Calm Calm -- 29.91 in1012.9 mb - 0.00 in0.0 mm 0.01 in0.3 mm
07:10 PM 35.6°F2.0°C 31.2°F-0.4°C 84% Calm Calm -- 29.91 in1012.9 mb - 0.00 in0.0 mm 0.01 in0.3 mm
07:20 PM 35.4°F1.9°C 31.0°F-0.6°C 84% Calm Calm -- 29.92 in1013.2 mb - 0.00 in0.0 mm 0.01 in0.3 mm
07:30 PM 35.2°F1.8°C 31.1°F-0.5°C 85% Calm Calm -- 29.92 in1013.2 mb - 0.00 in0.0 mm 0.01 in0.3 mm
07:40 PM 35.1°F1.7°C 31.0°F-0.6°C 85% Calm Calm -- 29.92 in1013.2 mb - 0.00 in0.0 mm 0.01 in0.3 mm
07:50 PM 35.0°F1.7°C 30.9°F-0.6°C 85% Calm Calm -- 29.92 in1013.2 mb - 0.00 in0.0 mm 0.01 in0.3 mm
08:00 PM 34.8°F1.6°C 31.1°F-0.5°C 86% Calm Calm -- 29.91 in1012.9 mb - 0.00 in0.0 mm 0.01 in0.3 mm
08:10 PM 34.7°F1.5°C 30.9°F-0.6°C 86% Calm Calm -- 29.92 in1013.2 mb - 0.00 in0.0 mm 0.01 in0.3 mm
08:20 PM 34.5°F1.4°C 31.0°F-0.6°C 87% Calm Calm -- 29.92 in1013.2 mb - 0.00 in0.0 mm 0.01 in0.3 mm
08:30 PM 34.3°F1.3°C 30.8°F-0.7°C 87% Calm Calm -- 29.92 in1013.2 mb - 0.00 in0.0 mm 0.01 in0.3 mm
08:40 PM 33.9°F1.1°C 30.7°F-0.7°C 88% Calm Calm -- 29.93 in1013.5 mb - 0.00 in0.0 mm 0.01 in0.3 mm
08:50 PM 33.7°F0.9°C 30.5°F-0.8°C 88% Calm Calm -- 29.93 in1013.5 mb - 0.00 in0.0 mm 0.01 in0.3 mm
09:00 PM 33.4°F0.8°C 30.5°F-0.8°C 89% Calm Calm -- 29.93 in1013.5 mb - 0.00 in0.0 mm 0.01 in0.3 mm
09:10 PM 33.2°F0.7°C 30.3°F-0.9°C 89% Calm Calm -- 29.93 in1013.5 mb - 0.00 in0.0 mm 0.01 in0.3 mm
09:20 PM 33.0°F0.6°C 30.1°F-1.1°C 89% Calm Calm -- 29.93 in1013.5 mb - 0.00 in0.0 mm 0.01 in0.3 mm
09:30 PM 32.9°F0.5°C 30.3°F-0.9°C 90% Calm Calm -- 29.93 in1013.5 mb - 0.00 in0.0 mm 0.01 in0.3 mm
09:40 PM 32.8°F0.4°C 30.2°F-1.0°C 90% Calm Calm -- 29.94 in1013.9 mb - 0.00 in0.0 mm 0.01 in0.3 mm
09:50 PM 32.7°F0.4°C 30.1°F-1.1°C 90% Calm Calm -- 29.95 in1014.2 mb - 0.00 in0.0 mm 0.01 in0.3 mm
10:00 PM 32.7°F0.4°C 30.4°F-0.9°C 91% Calm Calm -- 29.95 in1014.2 mb - 0.00 in0.0 mm 0.01 in0.3 mm
10:10 PM 32.7°F0.4°C 30.1°F-1.1°C 90% Calm Calm -- 29.94 in1013.9 mb - 0.00 in0.0 mm 0.01 in0.3 mm
10:20 PM 32.8°F0.4°C 30.5°F-0.8°C 91% Calm Calm -- 29.94 in1013.9 mb - 0.00 in0.0 mm 0.01 in0.3 mm
10:30 PM 32.8°F0.4°C 30.5°F-0.8°C 91% Calm Calm -- 29.94 in1013.9 mb - 0.00 in0.0 mm 0.01 in0.3 mm
10:40 PM 32.8°F0.4°C 30.5°F-0.8°C 91% Calm Calm -- 29.94 in1013.9 mb - 0.00 in0.0 mm 0.01 in0.3 mm
10:50 PM 32.8°F0.4°C 30.5°F-0.8°C 91% Calm Calm -- 29.95 in1014.2 mb - 0.00 in0.0 mm 0.01 in0.3 mm
11:00 PM 32.8°F0.4°C 30.5°F-0.8°C 91% Calm Calm -- 29.95 in1014.2 mb - 0.00 in0.0 mm 0.01 in0.3 mm
11:10 PM 32.9°F0.5°C 30.6°F-0.8°C 91% Calm Calm -- 29.95 in1014.2 mb - 0.00 in0.0 mm 0.01 in0.3 mm
11:20 PM 32.9°F0.5°C 30.6°F-0.8°C 91% Calm Calm -- 29.94 in1013.9 mb - 0.00 in0.0 mm 0.01 in0.3 mm
11:30 PM 32.9°F0.5°C 30.6°F-0.8°C 91% Calm Calm -- 29.95 in1014.2 mb - 0.00 in0.0 mm 0.01 in0.3 mm
11:40 PM 32.9°F0.5°C 30.6°F-0.8°C 91% Calm Calm -- 29.95 in1014.2 mb - 0.00 in0.0 mm 0.01 in0.3 mm
11:50 PM 32.9°F0.5°C 30.6°F-0.8°C 91% Calm Calm -- 29.95 in1014.2 mb - 0.00 in0.0 mm 0.01 in0.3 mm